Time;durP1;ratioP1;P1;durP2;ratioP2;P2;SDS_P1;SDS_P2;PMS_P1;PMS_P2;Temp;Humidity;BMP_temperature;BMP_pressure;BME280_temperature;BME280_humidity;BME280_pressure;Samples;Min_cycle;Max_cycle;Signal;HPM_P1;HPM_P2
2023/03/21 00:01:55;;;;;;;;;;;;;;;8.61;77.91;98944.38;5086969;28;20052;-80
2023/03/21 00:04:24;;;;;;;;;;;;;;;8.45;78.01;98936.31;5073771;28;19923;-80
2023/03/21 00:06:50;;;;;;;;;;;;;;;8.55;78.11;98936.50;5064561;28;19926;-80
2023/03/21 00:09:15;;;;;;;;;;;;;;;8.48;78.60;98928.66;5082805;28;20453;-79
2023/03/21 00:11:41;;;;;;;;;;;;;;;8.60;78.11;98933.97;5071204;28;20423;-80
2023/03/21 00:14:07;;;;;;;;;;;;;;;8.46;78.23;98932.59;5071857;28;20299;-80
2023/03/21 00:16:34;;;;;;;;;;;;;;;8.41;78.50;98927.97;5067573;28;20359;-80
2023/03/21 00:19:02;;;;;;;;;;;;;;;8.56;77.76;98932.81;5073122;28;19924;-80
2023/03/21 00:21:31;;;;;;;;;;;;;;;8.62;77.53;98927.38;5075647;28;19920;-80
2023/03/21 00:23:56;;;;;;;;;;;;;;;8.66;78.09;98925.88;5071381;28;19928;-79
2023/03/21 00:26:22;;;;;;;;;;;;;;;8.67;78.02;98930.13;5072406;28;19916;-79
2023/03/21 00:28:47;;;;;;;;;;;;;;;8.64;77.14;98919.16;5053634;28;20265;-81
2023/03/21 00:31:12;;;;;;;;;;;;;;;8.46;77.68;98921.94;5070729;28;19983;-81
2023/03/21 00:33:38;;;;;;;;;;;;;;;8.59;78.19;98921.69;5075343;28;19962;-81
2023/03/21 00:36:03;;;;;;;;;;;;;;;8.62;77.45;98922.06;5071758;28;20346;-80
2023/03/21 00:38:28;;;;;;;;;;;;;;;8.66;77.01;98920.53;5072367;28;19920;-79
2023/03/21 00:40:54;;;;;;;;;;;;;;;8.64;77.46;98908.50;5073241;28;19925;-81
2023/03/21 00:43:22;;;;;;;;;;;;;;;8.68;77.54;98905.16;5073488;28;20376;-81
2023/03/21 00:45:48;;;;;;;;;;;;;;;8.65;77.14;98910.94;5065847;28;19935;-81
2023/03/21 00:48:13;;;;;;;;;;;;;;;8.38;78.25;98909.81;5068343;28;19955;-81
2023/03/21 00:50:39;;;;;;;;;;;;;;;8.55;78.33;98908.06;5064429;28;19998;-80
2023/03/21 00:53:04;;;;;;;;;;;;;;;8.55;77.54;98908.06;5066275;28;19935;-80
2023/03/21 00:55:30;;;;;;;;;;;;;;;8.36;78.54;98909.25;5069617;28;19924;-79
2023/03/21 00:57:55;;;;;;;;;;;;;;;8.56;77.87;98907.00;5070079;28;20327;-79
2023/03/21 01:00:21;;;;;;;;;;;;;;;8.58;78.19;98910.28;5070686;28;20121;-80
2023/03/21 01:02:56;;;;;;;;;;;;;;;8.49;77.96;98895.72;5053627;28;19936;-80
2023/03/21 01:08:14;;;;;;;;;;;;;;;8.48;78.25;98894.06;5069547;28;20012;-80
2023/03/21 01:10:41;;;;;;;;;;;;;;;8.40;78.07;98896.28;5076402;28;19916;-80
2023/03/21 01:13:07;;;;;;;;;;;;;;;8.45;77.91;98896.41;5070757;28;19917;-80
2023/03/21 01:15:33;;;;;;;;;;;;;;;8.46;77.85;98904.16;5074814;28;20261;-79
2023/03/21 01:17:58;;;;;;;;;;;;;;;8.39;77.56;98894.69;5069634;28;19974;-81
2023/03/21 01:20:23;;;;;;;;;;;;;;;8.47;77.21;98892.47;5069280;28;19931;-81
2023/03/21 01:22:49;;;;;;;;;;;;;;;8.34;77.60;98898.03;5054224;28;19924;-80
2023/03/21 01:25:14;;;;;;;;;;;;;;;8.38;77.95;98901.03;5069867;28;19921;-80
2023/03/21 01:27:39;;;;;;;;;;;;;;;8.41;77.71;98901.38;5075734;28;20441;-82
2023/03/21 01:30:05;;;;;;;;;;;;;;;8.34;77.28;98890.06;5076160;28;19927;-81
2023/03/21 01:32:30;;;;;;;;;;;;;;;8.37;77.78;98897.56;5077333;28;20360;-81
2023/03/21 01:34:55;;;;;;;;;;;;;;;8.43;77.77;98891.31;5071040;28;19920;-81
2023/03/21 01:37:21;;;;;;;;;;;;;;;8.32;78.31;98890.28;5072705;28;20023;-81
2023/03/21 01:39:46;;;;;;;;;;;;;;;8.28;78.26;98890.97;5072667;28;20026;-81
2023/03/21 01:42:12;;;;;;;;;;;;;;;8.29;78.59;98892.59;5076146;28;19920;-80
2023/03/21 01:44:57;;;;;;;;;;;;;;;8.33;78.50;98880.47;5069922;28;19920;-80
2023/03/21 01:47:22;;;;;;;;;;;;;;;8.35;78.13;98885.53;5057980;28;19962;-81
2023/03/21 01:49:53;;;;;;;;;;;;;;;8.35;78.18;98878.38;5056973;28;19924;-80
2023/03/21 01:52:23;;;;;;;;;;;;;;;8.31;78.13;98877.22;5072497;28;20039;-80
2023/03/21 01:54:48;;;;;;;;;;;;;;;8.35;78.03;98881.03;5072639;28;20007;-81
2023/03/21 01:57:17;;;;;;;;;;;;;;;8.27;77.76;98876.06;5073981;28;19964;-80
2023/03/21 01:59:45;;;;;;;;;;;;;;;8.34;78.04;98868.78;5074743;28;20292;-81
2023/03/21 02:02:13;;;;;;;;;;;;;;;8.38;78.61;98877.91;5068117;28;20339;-81
2023/03/21 02:04:39;;;;;;;;;;;;;;;8.46;77.73;98874.06;5075537;28;19924;-80
2023/03/21 02:07:06;;;;;;;;;;;;;;;8.18;78.78;98874.78;5075337;28;20392;-80
2023/03/21 02:09:33;;;;;;;;;;;;;;;8.32;78.96;98872.72;5074141;28;21703;-80
2023/03/21 02:11:59;;;;;;;;;;;;;;;8.29;78.60;98869.50;5072127;28;19923;-81
2023/03/21 02:14:24;;;;;;;;;;;;;;;8.44;78.31;98865.53;5074055;28;19916;-79
2023/03/21 02:16:55;;;;;;;;;;;;;;;8.52;77.56;98867.84;5076313;28;19943;-81
2023/03/21 02:19:23;;;;;;;;;;;;;;;8.38;77.61;98855.81;5068465;28;19989;-80
2023/03/21 02:22:09;;;;;;;;;;;;;;;7.99;79.67;98857.34;5077191;28;20057;-80
2023/03/21 02:24:35;;;;;;;;;;;;;;;8.10;78.64;98849.34;5075976;28;20395;-81
2023/03/21 02:27:10;;;;;;;;;;;;;;;8.39;78.82;98854.78;5071517;28;20372;-80
2023/03/21 02:29:45;;;;;;;;;;;;;;;8.37;78.57;98855.00;5078477;28;19917;-80
2023/03/21 02:32:22;;;;;;;;;;;;;;;8.37;78.62;98852.34;5074496;28;19944;-80
2023/03/21 02:35:11;;;;;;;;;;;;;;;8.26;79.36;98843.34;5073395;28;20011;-79
2023/03/21 02:37:55;;;;;;;;;;;;;;;8.47;78.45;98846.44;5067762;28;19916;-79
2023/03/21 02:40:26;;;;;;;;;;;;;;;8.32;79.53;98837.09;5072305;28;19931;-79
2023/03/21 02:43:07;;;;;;;;;;;;;;;8.36;79.25;98841.94;5081255;28;20395;-81
2023/03/21 02:45:39;;;;;;;;;;;;;;;8.47;78.11;98843.78;5072637;28;20447;-79
2023/03/21 02:48:08;;;;;;;;;;;;;;;8.58;77.77;98843.78;5076343;28;19917;-79
2023/03/21 02:50:33;;;;;;;;;;;;;;;8.52;78.54;98850.00;5073462;28;19916;-79
2023/03/21 02:53:01;;;;;;;;;;;;;;;8.46;78.25;98844.81;5069366;28;19917;-79
2023/03/21 02:55:28;;;;;;;;;;;;;;;8.41;78.87;98850.06;5056201;28;19920;-79
2023/03/21 02:57:54;;;;;;;;;;;;;;;8.39;79.14;98844.94;5074201;28;19921;-79
2023/03/21 03:00:26;;;;;;;;;;;;;;;8.46;78.43;98847.47;5075293;28;19920;-79
2023/03/21 03:02:53;;;;;;;;;;;;;;;8.38;78.87;98846.00;5073920;28;20283;-81
2023/03/21 03:05:22;;;;;;;;;;;;;;;8.03;79.09;98842.53;5072467;28;19916;-80
2023/03/21 03:08:07;;;;;;;;;;;;;;;8.07;79.68;98852.47;5074588;28;20019;-80
2023/03/21 03:10:32;;;;;;;;;;;;;;;8.38;78.76;98845.19;5073179;28;20307;-79
2023/03/21 03:13:06;;;;;;;;;;;;;;;8.32;79.21;98846.13;5069899;28;19916;-81
2023/03/21 03:15:44;;;;;;;;;;;;;;;8.30;78.60;98838.38;5073734;28;19945;-81
2023/03/21 03:18:18;;;;;;;;;;;;;;;8.25;79.06;98832.94;5070839;28;19946;-81
2023/03/21 03:20:50;;;;;;;;;;;;;;;8.34;79.59;98833.41;5077201;28;19921;-81
2023/03/21 03:23:20;;;;;;;;;;;;;;;8.30;79.67;98831.19;5066262;28;19991;-81
2023/03/21 03:25:49;;;;;;;;;;;;;;;8.19;79.47;98828.56;5072996;28;19916;-80
2023/03/21 03:28:18;;;;;;;;;;;;;;;8.28;78.99;98830.63;5078149;28;19935;-80
2023/03/21 03:30:45;;;;;;;;;;;;;;;8.26;79.14;98831.91;5066296;28;20026;-81
2023/03/21 03:33:13;;;;;;;;;;;;;;;8.15;79.25;98830.03;5053506;28;19921;-81
2023/03/21 03:35:39;;;;;;;;;;;;;;;8.26;79.14;98831.91;5067770;28;20365;-80
2023/03/21 03:38:05;;;;;;;;;;;;;;;8.27;79.07;98825.56;5072738;28;20322;-79
2023/03/21 03:40:35;;;;;;;;;;;;;;;8.24;80.11;98829.44;5066427;28;19955;-80
2023/03/21 03:43:04;;;;;;;;;;;;;;;8.18;79.34;98822.41;5068268;28;19924;-81
2023/03/21 03:45:33;;;;;;;;;;;;;;;8.32;79.06;98827.50;5069667;28;20387;-81
2023/03/21 03:47:58;;;;;;;;;;;;;;;8.27;79.20;98831.69;5068860;28;19962;-81
2023/03/21 03:50:24;;;;;;;;;;;;;;;8.18;79.87;98827.72;5071195;28;19948;-79
2023/03/21 03:52:51;;;;;;;;;;;;;;;8.19;79.58;98825.91;5069224;28;20011;-80
2023/03/21 03:55:17;;;;;;;;;;;;;;;8.19;80.61;98826.69;5068007;28;19924;-81
2023/03/21 03:57:43;;;;;;;;;;;;;;;8.18;80.08;98821.59;5058855;28;19931;-80
2023/03/21 04:00:14;;;;;;;;;;;;;;;8.14;80.63;98818.63;5054878;28;19983;-79
2023/03/21 04:02:40;;;;;;;;;;;;;;;8.14;80.76;98815.13;5072046;28;20053;-80
2023/03/21 04:05:05;;;;;;;;;;;;;;;8.22;79.86;98815.59;5071586;28;20284;-79
2023/03/21 04:07:30;;;;;;;;;;;;;;;8.15;80.18;98809.59;5069976;28;20416;-79
2023/03/21 04:09:56;;;;;;;;;;;;;;;8.17;80.58;98807.50;5072838;28;19916;-79
2023/03/21 04:12:22;;;;;;;;;;;;;;;8.19;80.42;98809.94;5064945;28;19929;-80
2023/03/21 04:14:47;;;;;;;;;;;;;;;8.19;80.07;98808.06;5071275;28;19916;-78
2023/03/21 04:17:12;;;;;;;;;;;;;;;8.18;81.04;98808.31;5071145;28;19979;-80
2023/03/21 04:19:37;;;;;;;;;;;;;;;8.16;80.39;98807.75;5069194;28;19927;-80
2023/03/21 04:22:03;;;;;;;;;;;;;;;8.20;80.12;98806.22;5052859;28;19932;-78
2023/03/21 04:24:32;;;;;;;;;;;;;;;8.18;80.39;98800.34;5072670;28;19921;-80
2023/03/21 04:26:57;;;;;;;;;;;;;;;8.15;81.09;98804.25;5074373;28;20408;-80
2023/03/21 04:29:23;;;;;;;;;;;;;;;8.17;81.51;98806.69;5073236;28;19967;-79
2023/03/21 04:31:48;;;;;;;;;;;;;;;8.08;81.31;98808.09;5075250;28;19920;-80
2023/03/21 04:34:14;;;;;;;;;;;;;;;8.12;81.40;98806.59;5073969;28;19970;-81
2023/03/21 04:36:46;;;;;;;;;;;;;;;8.12;81.33;98812.72;5075163;28;19939;-80
2023/03/21 04:39:11;;;;;;;;;;;;;;;8.09;81.50;98804.38;5076061;28;19920;-79
2023/03/21 04:41:40;;;;;;;;;;;;;;;7.90;82.37;98802.91;5072883;28;19925;-79
2023/03/21 04:44:06;;;;;;;;;;;;;;;7.95;82.12;98797.72;5076408;28;19931;-81
2023/03/21 04:46:32;;;;;;;;;;;;;;;8.04;81.99;98801.63;5075023;28;19916;-81
2023/03/21 04:48:58;;;;;;;;;;;;;;;8.06;81.50;98804.88;5071271;28;19942;-81
2023/03/21 04:51:23;;;;;;;;;;;;;;;8.11;81.12;98803.13;5072152;28;20460;-78
2023/03/21 04:53:51;;;;;;;;;;;;;;;8.09;80.76;98796.41;5053994;28;19936;-81
2023/03/21 04:56:16;;;;;;;;;;;;;;;8.09;80.36;98799.06;5073779;28;19920;-81
2023/03/21 04:58:42;;;;;;;;;;;;;;;7.91;81.60;98796.53;5054823;28;19927;-79
2023/03/21 05:01:07;;;;;;;;;;;;;;;7.83;81.86;98794.25;5069211;28;19936;-81
2023/03/21 05:03:39;;;;;;;;;;;;;;;8.02;81.84;98799.19;5065986;28;19942;-80
2023/03/21 05:06:07;;;;;;;;;;;;;;;8.05;81.11;98804.06;5067844;28;20015;-80
2023/03/21 05:08:33;;;;;;;;;;;;;;;8.02;81.53;98799.19;5064604;28;19935;-78
2023/03/21 05:10:59;;;;;;;;;;;;;;;7.93;82.46;98805.13;5066598;28;20027;-81
2023/03/21 05:13:24;;;;;;;;;;;;;;;7.99;81.60;98805.00;5069999;28;19920;-80
2023/03/21 05:15:49;;;;;;;;;;;;;;;8.00;82.26;98806.59;5069247;28;19920;-79
2023/03/21 05:18:23;;;;;;;;;;;;;;;8.05;81.53;98805.91;5053963;28;19921;-80
2023/03/21 05:20:52;;;;;;;;;;;;;;;8.00;82.18;98811.09;5070004;28;19924;-81
2023/03/21 05:23:18;;;;;;;;;;;;;;;7.99;81.96;98798.88;5067713;28;19982;-81
2023/03/21 05:25:43;;;;;;;;;;;;;;;8.01;81.36;98805.56;5066411;28;19921;-81
2023/03/21 05:28:08;;;;;;;;;;;;;;;7.95;81.55;98803.81;5072736;28;19999;-80
2023/03/21 05:30:34;;;;;;;;;;;;;;;8.02;81.28;98804.50;5071753;28;19925;-80
2023/03/21 05:32:59;;;;;;;;;;;;;;;7.96;82.17;98799.31;5074900;28;19927;-79
2023/03/21 05:35:39;;;;;;;;;;;;;;;7.89;81.74;98798.63;5072731;28;19943;-77
2023/03/21 05:38:04;;;;;;;;;;;;;;;8.00;81.53;98795.16;5058250;28;19916;-77
2023/03/21 05:40:29;;;;;;;;;;;;;;;8.05;81.71;98804.06;5057283;28;19927;-77
2023/03/21 05:42:55;;;;;;;;;;;;;;;8.04;81.26;98796.28;5063863;28;19920;-77
2023/03/21 05:45:20;;;;;;;;;;;;;;;8.04;82.48;98796.28;5060155;28;19924;-78
2023/03/21 05:47:46;;;;;;;;;;;;;;;8.02;81.68;98798.38;5057489;28;19920;-78
2023/03/21 05:50:14;;;;;;;;;;;;;;;7.98;82.46;98798.06;5060389;28;20392;-78
2023/03/21 05:52:39;;;;;;;;;;;;;;;7.97;82.30;98790.31;5059146;28;20377;-79
2023/03/21 05:55:05;;;;;;;;;;;;;;;7.97;82.72;98790.31;5061554;28;19928;-78
2023/03/21 05:57:33;;;;;;;;;;;;;;;8.00;82.08;98795.97;5062834;28;20301;-78
2023/03/21 05:59:59;;;;;;;;;;;;;;;8.09;81.69;98793.75;5064613;28;19924;-78
2023/03/21 06:02:24;;;;;;;;;;;;;;;8.06;81.93;98800.34;5055763;28;20427;-80
2023/03/21 06:04:49;;;;;;;;;;;;;;;8.07;82.54;98796.66;5060235;28;19979;-78
2023/03/21 06:07:14;;;;;;;;;;;;;;;8.09;81.99;98793.75;5054942;28;20035;-78
2023/03/21 06:09:40;;;;;;;;;;;;;;;8.04;82.18;98797.13;5051102;28;20288;-77
2023/03/21 06:12:05;;;;;;;;;;;;;;;8.06;82.50;98788.94;5049074;28;19964;-77
2023/03/21 06:14:30;;;;;;;;;;;;;;;7.96;82.37;98794.81;5063453;28;19975;-78
2023/03/21 06:16:55;;;;;;;;;;;;;;;8.04;82.70;98796.28;5061682;28;19924;-77
2023/03/21 06:19:21;;;;;;;;;;;;;;;8.11;82.39;98803.13;5055825;28;19920;-78
2023/03/21 06:21:46;;;;;;;;;;;;;;;8.12;82.35;98794.13;5057913;28;19925;-78
2023/03/21 06:24:12;;;;;;;;;;;;;;;8.10;83.10;98798.84;5050344;28;19929;-78
2023/03/21 06:26:37;;;;;;;;;;;;;;;8.15;83.17;98795.47;5054563;28;19920;-78
2023/03/21 06:29:03;;;;;;;;;;;;;;;8.17;82.44;98793.38;5058415;28;20309;-76
2023/03/21 06:31:28;;;;;;;;;;;;;;;8.19;82.32;98801.97;5049764;28;21882;-78
2023/03/21 06:33:53;;;;;;;;;;;;;;;8.28;82.39;98803.22;5053413;28;19960;-78
2023/03/21 06:36:19;;;;;;;;;;;;;;;8.12;82.54;98799.44;5052228;28;19929;-77
2023/03/21 06:38:45;;;;;;;;;;;;;;;8.11;83.28;98797.81;5057550;28;19923;-77
2023/03/21 06:41:11;;;;;;;;;;;;;;;8.23;82.92;98800.44;5052318;28;19967;-77
2023/03/21 06:43:36;;;;;;;;;;;;;;;8.20;82.68;98796.41;5054623;28;19917;-77
2023/03/21 06:46:02;;;;;;;;;;;;;;;8.20;81.98;98804.38;5041528;28;19948;-78
2023/03/21 06:48:27;;;;;;;;;;;;;;;8.32;82.31;98795.59;5041741;28;19921;-76
2023/03/21 06:50:53;;;;;;;;;;;;;;;8.22;82.88;98790.84;5039136;28;19977;-78
2023/03/21 06:53:19;;;;;;;;;;;;;;;8.24;82.23;98792.22;5040998;28;19956;-78
2023/03/21 06:55:49;;;;;;;;;;;;;;;8.30;82.24;98788.66;5038843;28;19976;-76
2023/03/21 06:58:14;;;;;;;;;;;;;;;8.44;82.00;98789.22;5045533;28;20022;-77
2023/03/21 07:00:40;;;;;;;;;;;;;;;8.43;81.88;98794.78;5044817;28;19924;-78
2023/03/21 07:03:05;;;;;;;;;;;;;;;8.55;81.34;98800.84;5046792;28;20011;-78
2023/03/21 07:05:31;;;;;;;;;;;;;;;8.35;82.41;98798.59;5045186;28;19925;-78
2023/03/21 07:07:56;;;;;;;;;;;;;;;8.42;81.28;98799.28;5043664;28;19929;-78
2023/03/21 07:10:21;;;;;;;;;;;;;;;8.53;81.47;98794.97;5043273;28;19928;-78
2023/03/21 07:12:46;;;;;;;;;;;;;;;8.52;81.61;98796.03;5034245;28;20455;-78
2023/03/21 07:15:11;;;;;;;;;;;;;;;8.57;81.66;98799.56;5039727;28;19944;-79
2023/03/21 07:17:37;;;;;;;;;;;;;;;8.56;81.91;98799.81;5042882;28;20416;-78
2023/03/21 07:20:06;;;;;;;;;;;;;;;8.62;81.10;98802.34;5044233;28;20378;-79
2023/03/21 07:22:32;;;;;;;;;;;;;;;8.66;81.66;98805.31;5045961;28;19970;-79
2023/03/21 07:24:57;;;;;;;;;;;;;;;8.58;82.11;98809.19;5041324;28;19920;-78
2023/03/21 07:27:22;;;;;;;;;;;;;;;8.65;81.19;98809.03;5045732;28;19929;-78
2023/03/21 07:29:49;;;;;;;;;;;;;;;8.67;80.86;98806.97;5040820;28;19924;-79
2023/03/21 07:32:14;;;;;;;;;;;;;;;8.72;80.96;98810.50;5041837;28;19959;-80
2023/03/21 07:34:40;;;;;;;;;;;;;;;8.71;80.90;98800.09;5039297;28;19983;-79
2023/03/21 07:37:06;;;;;;;;;;;;;;;8.65;81.33;98801.84;5042019;28;19975;-79
2023/03/21 07:39:33;;;;;;;;;;;;;;;8.72;81.12;98799.03;5050563;28;19916;-79
2023/03/21 07:41:58;;;;;;;;;;;;;;;8.64;81.02;98794.13;5051737;28;19935;-78
2023/03/21 07:44:24;;;;;;;;;;;;;;;8.75;80.87;98796.75;5049734;28;19921;-78
2023/03/21 07:46:49;;;;;;;;;;;;;;;8.72;80.58;98797.19;5046778;28;19921;-79
2023/03/21 07:49:14;;;;;;;;;;;;;;;8.69;80.34;98802.97;5050712;28;19920;-78
2023/03/21 07:51:39;;;;;;;;;;;;;;;8.75;80.24;98799.41;5048925;28;19933;-78
2023/03/21 07:54:05;;;;;;;;;;;;;;;8.84;80.43;98800.63;5039978;28;20296;-78
2023/03/21 07:56:30;;;;;;;;;;;;;;;8.83;80.81;98803.50;5040037;28;20396;-78
2023/03/21 07:58:55;;;;;;;;;;;;;;;8.71;80.65;98792.13;5042435;28;19929;-80
2023/03/21 08:01:21;;;;;;;;;;;;;;;8.81;80.07;98790.47;5051183;28;19928;-79
2023/03/21 08:03:46;;;;;;;;;;;;;;;8.89;79.72;98787.41;5043170;28;20761;-80
2023/03/21 08:06:12;;;;;;;;;;;;;;;8.96;80.10;98790.72;5043201;28;19957;-78
2023/03/21 08:08:37;;;;;;;;;;;;;;;8.92;80.12;98784.28;5045788;28;20004;-79
2023/03/21 08:11:03;;;;;;;;;;;;;;;8.92;79.78;98794.09;5047655;28;20426;-79
2023/03/21 08:13:28;;;;;;;;;;;;;;;8.87;80.32;98792.16;5046969;28;19917;-79
2023/03/21 08:15:54;;;;;;;;;;;;;;;8.98;80.23;98779.84;5053472;28;19920;-78
2023/03/21 08:18:19;;;;;;;;;;;;;;;8.90;80.02;98791.69;5049189;28;19931;-79
2023/03/21 08:20:44;;;;;;;;;;;;;;;9.05;80.12;98797.28;5050739;28;20126;-80
2023/03/21 08:23:10;;;;;;;;;;;;;;;9.02;79.83;98784.44;5051736;28;19929;-79
2023/03/21 08:25:35;;;;;;;;;;;;;;;9.11;79.10;98789.41;5047863;28;19920;-79
2023/03/21 08:28:00;;;;;;;;;;;;;;;9.09;79.42;98789.63;5050438;28;19936;-79
2023/03/21 08:30:27;;;;;;;;;;;;;;;9.05;79.03;98791.97;5045376;28;20377;-80
2023/03/21 08:32:56;;;;;;;;;;;;;;;9.14;78.90;98787.03;5047947;28;19917;-77
2023/03/21 08:35:21;;;;;;;;;;;;;;;9.11;79.38;98789.41;5041653;28;19921;-76
2023/03/21 08:37:46;;;;;;;;;;;;;;;9.17;78.78;98789.25;5049529;28;19921;-78
2023/03/21 08:40:14;;;;;;;;;;;;;;;9.27;78.53;98780.59;5051184;28;19964;-78
2023/03/21 08:42:40;;;;;;;;;;;;;;;9.19;78.72;98789.00;5051560;28;19921;-79
2023/03/21 08:45:06;;;;;;;;;;;;;;;9.36;78.32;98784.47;5045523;28;19928;-78
2023/03/21 08:47:31;;;;;;;;;;;;;;;9.38;78.03;98785.03;5047466;28;20305;-78
2023/03/21 08:49:57;;;;;;;;;;;;;;;9.35;78.58;98781.00;5051445;28;19921;-78
2023/03/21 08:52:23;;;;;;;;;;;;;;;9.50;77.80;98783.91;5050380;28;19927;-78
2023/03/21 08:54:48;;;;;;;;;;;;;;;9.51;77.67;98784.72;5046368;28;19925;-77
2023/03/21 08:57:13;;;;;;;;;;;;;;;9.52;78.01;98781.81;5034783;28;19942;-77
2023/03/21 08:59:39;;;;;;;;;;;;;;;9.54;77.66;98787.72;5040545;28;19917;-79
2023/03/21 09:02:04;;;;;;;;;;;;;;;9.51;77.89;98784.72;5038186;28;20301;-79
2023/03/21 09:04:30;;;;;;;;;;;;;;;9.54;77.98;98786.91;5038753;28;20002;-78
2023/03/21 09:06:56;;;;;;;;;;;;;;;9.43;77.84;98790.47;5048046;28;19971;-77
2023/03/21 09:09:21;;;;;;;;;;;;;;;9.48;77.29;98788.66;5042606;28;19925;-79
2023/03/21 09:11:46;;;;;;;;;;;;;;;9.51;77.00;98788.19;5048359;28;20015;-78
2023/03/21 09:14:11;;;;;;;;;;;;;;;9.54;76.57;98790.38;5049654;28;20335;-78
2023/03/21 09:16:37;;;;;;;;;;;;;;;9.51;77.11;98785.53;5042810;28;19948;-78
2023/03/21 09:19:03;;;;;;;;;;;;;;;9.51;76.46;98787.38;5049096;28;19924;-79
2023/03/21 09:21:29;;;;;;;;;;;;;;;9.56;75.80;98790.94;5052949;28;19927;-77
2023/03/21 09:23:57;;;;;;;;;;;;;;;9.54;75.94;98781.59;5051008;28;19917;-77
2023/03/21 09:26:23;;;;;;;;;;;;;;;9.60;76.16;98786.75;5046868;28;20487;-78
2023/03/21 09:28:49;;;;;;;;;;;;;;;9.58;76.07;98786.19;5046419;28;19927;-78
2023/03/21 09:31:15;;;;;;;;;;;;;;;9.63;75.78;98780.91;5049373;28;19917;-77
2023/03/21 09:33:41;;;;;;;;;;;;;;;9.66;75.30;98782.28;5049612;28;19927;-77
2023/03/21 09:36:11;;;;;;;;;;;;;;;9.79;75.82;98782.75;5048404;28;20377;-77
2023/03/21 09:38:38;;;;;;;;;;;;;;;9.79;75.46;98780.09;5039692;28;19917;-78
2023/03/21 09:41:09;;;;;;;;;;;;;;;9.86;75.11;98779.91;5043018;28;19927;-77
2023/03/21 09:43:37;;;;;;;;;;;;;;;9.86;75.36;98774.59;5043459;28;20031;-78
2023/03/21 09:46:22;;;;;;;;;;;;;;;9.89;75.17;98775.97;5046842;28;19963;-78
2023/03/21 09:48:59;;;;;;;;;;;;;;;9.92;75.22;98770.13;5046135;28;19936;-77
2023/03/21 09:51:33;;;;;;;;;;;;;;;10.01;74.70;98766.78;5043690;28;19916;-78
2023/03/21 09:54:02;;;;;;;;;;;;;;;10.03;74.97;98770.03;5047872;28;19920;-78
2023/03/21 09:56:30;;;;;;;;;;;;;;;10.18;74.87;98772.91;5043510;28;19927;-78
2023/03/21 09:58:58;;;;;;;;;;;;;;;10.20;74.47;98770.03;5043603;28;20008;-77
2023/03/21 10:01:36;;;;;;;;;;;;;;;10.23;74.00;98781.00;5048911;28;19960;-78
2023/03/21 10:04:06;;;;;;;;;;;;;;;10.22;74.43;98775.91;5042332;28;19917;-78
2023/03/21 10:06:33;;;;;;;;;;;;;;;10.33;74.47;98773.09;5046719;28;20010;-77
2023/03/21 10:09:04;;;;;;;;;;;;;;;10.37;74.03;98774.25;5044694;28;20411;-78
2023/03/21 10:11:32;;;;;;;;;;;;;;;10.41;74.73;98772.69;5048395;28;19917;-77
2023/03/21 10:14:00;;;;;;;;;;;;;;;10.53;73.94;98773.34;5048048;28;19967;-78
2023/03/21 10:16:25;;;;;;;;;;;;;;;10.54;74.18;98769.63;5045379;28;19917;-78
2023/03/21 10:18:51;;;;;;;;;;;;;;;10.63;74.00;98761.19;5045508;28;19921;-78
2023/03/21 10:21:21;;;;;;;;;;;;;;;10.74;73.43;98762.91;5047003;28;19921;-76
2023/03/21 10:23:47;;;;;;;;;;;;;;;10.72;74.21;98751.66;5047272;28;19924;-78
2023/03/21 10:26:12;;;;;;;;;;;;;;;10.77;73.28;98747.19;5043317;28;20304;-77
2023/03/21 10:28:40;;;;;;;;;;;;;;;10.85;73.45;98745.94;5041465;28;19921;-77
2023/03/21 10:31:08;;;;;;;;;;;;;;;10.86;73.43;98753.69;5047799;28;19916;-76
2023/03/21 10:33:42;;;;;;;;;;;;;;;10.85;73.08;98746.75;5047040;28;19921;-78
2023/03/21 10:36:10;;;;;;;;;;;;;;;10.77;73.40;98755.19;5048050;28;19928;-78
2023/03/21 10:38:38;;;;;;;;;;;;;;;10.76;72.96;98745.56;5049856;28;19971;-78
2023/03/21 10:41:04;;;;;;;;;;;;;;;10.89;72.91;98742.50;5042321;28;19913;-77
2023/03/21 10:43:33;;;;;;;;;;;;;;;10.92;72.84;98750.00;5050212;28;19943;-78
2023/03/21 10:46:04;;;;;;;;;;;;;;;10.94;73.23;98741.75;5051644;28;19955;-78
2023/03/21 10:48:34;;;;;;;;;;;;;;;10.89;73.00;98744.38;5047693;28;19925;-77
2023/03/21 10:50:59;;;;;;;;;;;;;;;10.94;73.22;98737.19;5050506;28;20319;-77
2023/03/21 10:53:27;;;;;;;;;;;;;;;10.89;73.13;98742.50;5051354;28;20015;-78
2023/03/21 10:55:54;;;;;;;;;;;;;;;11.07;72.92;98739.44;5049397;28;19956;-77
2023/03/21 10:58:24;;;;;;;;;;;;;;;11.17;72.69;98741.41;5050473;28;19913;-78
2023/03/21 11:00:53;;;;;;;;;;;;;;;11.24;72.32;98734.00;5052118;28;20008;-77
2023/03/21 11:03:23;;;;;;;;;;;;;;;11.24;72.58;98742.81;5050242;28;19916;-77
2023/03/21 11:05:52;;;;;;;;;;;;;;;11.20;72.24;98736.34;5053560;28;19928;-78
2023/03/21 11:08:18;;;;;;;;;;;;;;;11.05;72.24;98743.44;5046553;28;19919;-78
2023/03/21 11:11:00;;;;;;;;;;;;;;;10.97;72.18;98734.03;5050663;28;20019;-77
2023/03/21 11:13:32;;;;;;;;;;;;;;;10.95;72.81;98740.66;5046596;28;19925;-78
2023/03/21 11:16:04;;;;;;;;;;;;;;;11.03;72.43;98738.34;5045196;28;19920;-77
2023/03/21 11:18:31;;;;;;;;;;;;;;;11.10;72.76;98735.47;5049740;28;19963;-77
2023/03/21 11:20:58;;;;;;;;;;;;;;;11.08;72.63;98732.25;5052149;28;20589;-78
2023/03/21 11:23:28;;;;;;;;;;;;;;;11.10;72.49;98738.13;5056221;28;19929;-77
2023/03/21 11:25:54;;;;;;;;;;;;;;;11.17;72.58;98728.06;5053816;28;19921;-77
2023/03/21 11:28:23;;;;;;;;;;;;;;;11.18;72.67;98725.13;5052734;28;20317;-77
2023/03/21 11:30:59;;;;;;;;;;;;;;;11.16;72.54;98721.13;5047875;28;20282;-78
2023/03/21 11:33:29;;;;;;;;;;;;;;;11.09;72.95;98723.19;5048786;28;19923;-79
2023/03/21 11:35:59;;;;;;;;;;;;;;;11.08;72.79;98726.91;5040442;28;19971;-79
2023/03/21 11:38:26;;;;;;;;;;;;;;;11.14;72.38;98724.03;5046446;28;19917;-80
2023/03/21 11:40:53;;;;;;;;;;;;;;;11.18;72.82;98727.00;5052174;28;19921;-78
2023/03/21 11:43:18;;;;;;;;;;;;;;;11.20;72.45;98719.53;5051942;28;20397;-78
2023/03/21 11:45:57;;;;;;;;;;;;;;;11.12;73.30;98720.00;5049494;28;19924;-78
2023/03/21 11:48:23;;;;;;;;;;;;;;;11.06;73.50;98727.16;5049370;28;19929;-78
2023/03/21 11:50:49;;;;;;;;;;;;;;;11.06;73.45;98726.34;5046920;28;19924;-78
2023/03/21 11:53:17;;;;;;;;;;;;;;;11.03;73.51;98708.97;5046081;28;19964;-77
2023/03/21 11:55:48;;;;;;;;;;;;;;;10.98;73.94;98724.97;5050151;28;19921;-77
2023/03/21 11:58:32;;;;;;;;;;;;;;;10.98;73.79;98713.47;5041767;28;19952;-77
2023/03/21 12:01:08;;;;;;;;;;;;;;;10.90;74.57;98717.41;5048436;28;19916;-77
2023/03/21 12:03:42;;;;;;;;;;;;;;;10.99;74.15;98707.06;5042127;28;19917;-77
2023/03/21 12:06:29;;;;;;;;;;;;;;;10.90;74.38;98706.72;5046076;28;19921;-77
2023/03/21 12:09:06;;;;;;;;;;;;;;;10.99;74.78;98693.69;5037754;28;20007;-78
2023/03/21 12:11:51;;;;;;;;;;;;;;;10.97;75.37;98696.63;5038229;28;19960;-77
2023/03/21 12:14:16;;;;;;;;;;;;;;;11.01;75.90;98697.72;5052284;28;19925;-78
2023/03/21 12:17:04;;;;;;;;;;;;;;;10.95;76.66;98693.41;5049963;28;20388;-79
2023/03/21 12:19:38;;;;;;;;;;;;;;;10.96;77.03;98684.38;5045327;28;20015;-78
2023/03/21 12:22:15;;;;;;;;;;;;;;;10.95;76.80;98689.94;5041016;28;19999;-79
2023/03/21 12:24:52;;;;;;;;;;;;;;;10.75;77.15;98685.22;5049143;28;19916;-78
2023/03/21 12:27:26;;;;;;;;;;;;;;;10.75;76.46;98687.88;5049996;28;19939;-79
2023/03/21 12:29:55;;;;;;;;;;;;;;;10.78;76.76;98681.25;5051407;28;20421;-79
2023/03/21 12:32:40;;;;;;;;;;;;;;;10.79;76.61;98674.88;5052549;28;19924;-78
2023/03/21 12:35:23;;;;;;;;;;;;;;;10.86;76.17;98672.75;5051003;28;19927;-76
2023/03/21 12:37:51;;;;;;;;;;;;;;;10.93;76.33;98679.53;5056444;28;19920;-79
2023/03/21 12:40:35;;;;;;;;;;;;;;;10.83;76.60;98673.28;5049004;28;19917;-79
2023/03/21 12:43:17;;;;;;;;;;;;;;;10.86;77.25;98672.75;5050898;28;19917;-78
2023/03/21 12:45:44;;;;;;;;;;;;;;;10.92;76.57;98669.09;5041401;28;19920;-79
2023/03/21 12:48:30;;;;;;;;;;;;;;;10.93;76.62;98674.19;5049460;28;19955;-79
2023/03/21 12:50:56;;;;;;;;;;;;;;;10.94;76.96;98675.00;5058038;28;19917;-77
2023/03/21 12:53:40;;;;;;;;;;;;;;;10.97;76.89;98669.94;5055307;28;19921;-78
2023/03/21 12:56:08;;;;;;;;;;;;;;;11.02;77.24;98669.16;5041814;28;19982;-78
2023/03/21 12:58:42;;;;;;;;;;;;;;;11.06;77.09;98667.59;5043840;28;19936;-78
2023/03/21 13:01:09;;;;;;;;;;;;;;;11.11;77.57;98671.13;5037885;28;19925;-79
2023/03/21 13:03:36;;;;;;;;;;;;;;;11.09;77.09;98664.41;5039620;28;19931;-77